Largo, MD

11:56 PM EDT on April 17, 2015 (GMT -0400)
Andrews Air Force Base-Naf | | Change Station
CLOSE
Current Station
Airport
Location: Andrews AFB,
Elevation: 282 ft
Nearby Weather Stations

Elev 282 ft 38.81 °N, 76.87 °W | Updated 58 minutes ago

Mostly Cloudy
Mostly Cloudy
64 °F
Feels Like 64 °F
N
2
Wind Variable Wind from NW

Today
High -- | Low -- °F
--% Chance of Precip.
Yesterday
High -- | Low -- °F
Precip. -- in
6:28 AM 7:45 PM
Waning Crescent, 1% visible
Pressure 30.00 in
Visibility 10.0 miles
Clouds Scattered Clouds 5000 ft
Scattered Clouds 6000 ft
Mostly Cloudy 8000 ft
Dew Point 62 °F
Humidity 93%
Rainfall 0.05 in
Snow Depth Not available.
UV 0 out of 12
Pollen 10.70 out of 12
Air Quality Not available.
Flu Activity Regional
METAR KADW 180258Z AUTO 32002KT 10SM SCT050 SCT060 BKN080 18/17 A2998 RMK AO2 SLP158 T01760165 51013

More Conditions Fewer Conditions

Pressure 30.00 in
Visibility 10.0 miles
Clouds Scattered Clouds 5000 ft
Scattered Clouds 6000 ft
Mostly Cloudy 8000 ft
Dew Point 62 °F
Humidity 93%
Rainfall 0.05 in
Snow Depth Not available.
UV 0 out of 12
Pollen 10.70 out of 12
Air Quality Not available.
Flu Activity Regional
METAR KADW 180258Z AUTO 32002KT 10SM SCT050 SCT060 BKN080 18/17 A2998 RMK AO2 SLP158 T01760165 51013

More Conditions Fewer Conditions

10-Day Weather Forecast

Almanac

Astronomy

Apr. 17, 2015 Rise Set
Actual Time
Civil Twilight
Nautical Twilight
Astronomical Twilight
Moon
Length of Visible Light
Length of Day
Tomorrow will be .
, % of the Moon is Illuminated

Today's Extremes

State Highs State Lows

Community

WunderPhotos

Upload Photos

1,814,316 photos uploaded!

WunderBlogs® & News

Nearby

Air Quality

  Air Quality AQ Index Pollutant
Not available.

Snow Depth

Station Depth Elevation

Earthquake Activity

City Distance Mag. Time & Date
Minimum magnitude displayed is 2.5.

Coastal Water Temperatures

Place Temperature

Stations

Nearby Weather Stations

Station Location Temp. Windchill Dew Point Humidity Wind Precip. Elev Updated Type